sensor_id;sensor_type;location;lat;lon;timestamp;temperature;humidity
28614;DHT22;15806;53.548;9.964;2023-03-11T00:00:37;5.30;99.90
28614;DHT22;15806;53.548;9.964;2023-03-11T00:02:18;5.10;99.90
28614;DHT22;15806;53.548;9.964;2023-03-11T00:03:59;4.90;99.90
28614;DHT22;15806;53.548;9.964;2023-03-11T00:05:41;5.20;99.90
28614;DHT22;15806;53.548;9.964;2023-03-11T00:07:22;5.30;99.90
28614;DHT22;15806;53.548;9.964;2023-03-11T00:09:02;5.10;99.90
28614;DHT22;15806;53.548;9.964;2023-03-11T00:10:45;4.80;99.90
28614;DHT22;15806;53.548;9.964;2023-03-11T00:12:26;5.10;99.90
28614;DHT22;15806;53.548;9.964;2023-03-11T00:14:06;5.00;99.90
28614;DHT22;15806;53.548;9.964;2023-03-11T00:15:50;5.30;99.90
28614;DHT22;15806;53.548;9.964;2023-03-11T00:17:30;4.80;99.90
28614;DHT22;15806;53.548;9.964;2023-03-11T00:19:11;5.20;99.90
28614;DHT22;15806;53.548;9.964;2023-03-11T00:20:52;4.90;99.90
28614;DHT22;15806;53.548;9.964;2023-03-11T00:22:33;5.20;99.90
28614;DHT22;15806;53.548;9.964;2023-03-11T00:24:13;5.20;99.90
28614;DHT22;15806;53.548;9.964;2023-03-11T00:25:54;5.10;99.90
28614;DHT22;15806;53.548;9.964;2023-03-11T00:27:35;5.10;99.90
28614;DHT22;15806;53.548;9.964;2023-03-11T00:29:15;4.70;99.90
28614;DHT22;15806;53.548;9.964;2023-03-11T00:30:56;5.00;99.90
28614;DHT22;15806;53.548;9.964;2023-03-11T00:32:36;4.70;99.90
28614;DHT22;15806;53.548;9.964;2023-03-11T00:34:17;4.70;99.90
28614;DHT22;15806;53.548;9.964;2023-03-11T00:35:57;4.90;99.90
28614;DHT22;15806;53.548;9.964;2023-03-11T00:37:38;5.30;99.90
28614;DHT22;15806;53.548;9.964;2023-03-11T00:39:18;4.90;99.90
28614;DHT22;15806;53.548;9.964;2023-03-11T00:40:59;5.10;99.90
28614;DHT22;15806;53.548;9.964;2023-03-11T00:42:39;5.10;99.90
28614;DHT22;15806;53.548;9.964;2023-03-11T00:44:20;4.70;99.90
28614;DHT22;15806;53.548;9.964;2023-03-11T00:46:00;4.90;99.90
28614;DHT22;15806;53.548;9.964;2023-03-11T00:47:41;5.30;99.90
28614;DHT22;15806;53.548;9.964;2023-03-11T00:49:22;5.00;99.90
28614;DHT22;15806;53.548;9.964;2023-03-11T00:51:02;5.30;99.90
28614;DHT22;15806;53.548;9.964;2023-03-11T00:52:44;5.30;99.90
28614;DHT22;15806;53.548;9.964;2023-03-11T00:54:25;4.70;99.90
28614;DHT22;15806;53.548;9.964;2023-03-11T00:56:10;4.70;99.90
28614;DHT22;15806;53.548;9.964;2023-03-11T00:57:52;4.70;99.90
28614;DHT22;15806;53.548;9.964;2023-03-11T00:59:34;5.20;99.90
28614;DHT22;15806;53.548;9.964;2023-03-11T01:01:16;4.70;99.90
28614;DHT22;15806;53.548;9.964;2023-03-11T01:02:58;5.20;99.90
28614;DHT22;15806;53.548;9.964;2023-03-11T01:04:39;5.10;99.90
28614;DHT22;15806;53.548;9.964;2023-03-11T01:06:19;4.70;99.90
28614;DHT22;15806;53.548;9.964;2023-03-11T01:08:01;5.30;99.90
28614;DHT22;15806;53.548;9.964;2023-03-11T01:09:41;5.20;99.90
28614;DHT22;15806;53.548;9.964;2023-03-11T01:11:22;4.80;99.90
28614;DHT22;15806;53.548;9.964;2023-03-11T01:13:03;5.10;99.90
28614;DHT22;15806;53.548;9.964;2023-03-11T01:14:44;4.70;99.90
28614;DHT22;15806;53.548;9.964;2023-03-11T01:16:24;4.70;99.90
28614;DHT22;15806;53.548;9.964;2023-03-11T01:18:05;5.30;99.90
28614;DHT22;15806;53.548;9.964;2023-03-11T01:19:46;4.70;99.90
28614;DHT22;15806;53.548;9.964;2023-03-11T01:21:26;4.70;99.90
28614;DHT22;15806;53.548;9.964;2023-03-11T01:23:08;5.00;99.90
28614;DHT22;15806;53.548;9.964;2023-03-11T01:24:50;4.90;99.90
28614;DHT22;15806;53.548;9.964;2023-03-11T01:26:30;4.90;99.90
28614;DHT22;15806;53.548;9.964;2023-03-11T01:28:11;4.90;99.90
28614;DHT22;15806;53.548;9.964;2023-03-11T01:29:52;5.00;99.90
28614;DHT22;15806;53.548;9.964;2023-03-11T01:31:32;5.20;99.90
28614;DHT22;15806;53.548;9.964;2023-03-11T01:33:18;5.10;99.90
28614;DHT22;15806;53.548;9.964;2023-03-11T01:34:58;4.70;99.90
28614;DHT22;15806;53.548;9.964;2023-03-11T01:36:39;5.20;99.90
28614;DHT22;15806;53.548;9.964;2023-03-11T01:38:19;4.60;99.90
28614;DHT22;15806;53.548;9.964;2023-03-11T01:40:00;5.20;99.90
28614;DHT22;15806;53.548;9.964;2023-03-11T01:41:41;4.60;99.90
28614;DHT22;15806;53.548;9.964;2023-03-11T01:43:38;4.90;99.90
28614;DHT22;15806;53.548;9.964;2023-03-11T01:45:32;5.10;99.90
28614;DHT22;15806;53.548;9.964;2023-03-11T01:48:58;4.60;99.90
28614;DHT22;15806;53.548;9.964;2023-03-11T01:50:45;5.00;99.90
28614;DHT22;15806;53.548;9.964;2023-03-11T01:52:28;4.80;99.90
28614;DHT22;15806;53.548;9.964;2023-03-11T01:54:16;5.10;99.90
28614;DHT22;15806;53.548;9.964;2023-03-11T01:55:57;4.80;99.90
28614;DHT22;15806;53.548;9.964;2023-03-11T01:57:41;4.70;99.90
28614;DHT22;15806;53.548;9.964;2023-03-11T01:59:26;4.60;99.90
28614;DHT22;15806;53.548;9.964;2023-03-11T02:01:08;4.70;99.90
28614;DHT22;15806;53.548;9.964;2023-03-11T02:02:51;4.70;99.90
28614;DHT22;15806;53.548;9.964;2023-03-11T02:04:33;4.60;99.90
28614;DHT22;15806;53.548;9.964;2023-03-11T02:06:20;4.50;99.90
28614;DHT22;15806;53.548;9.964;2023-03-11T02:08:02;5.00;99.90
28614;DHT22;15806;53.548;9.964;2023-03-11T02:09:42;4.60;99.90
28614;DHT22;15806;53.548;9.964;2023-03-11T02:11:26;4.50;99.90
28614;DHT22;15806;53.548;9.964;2023-03-11T02:13:07;4.40;99.90
28614;DHT22;15806;53.548;9.964;2023-03-11T02:14:49;4.80;99.90
28614;DHT22;15806;53.548;9.964;2023-03-11T02:16:31;4.80;99.90
28614;DHT22;15806;53.548;9.964;2023-03-11T02:18:13;5.00;99.90
28614;DHT22;15806;53.548;9.964;2023-03-11T02:21:49;4.50;99.90
28614;DHT22;15806;53.548;9.964;2023-03-11T02:25:47;4.80;99.90
28614;DHT22;15806;53.548;9.964;2023-03-11T02:27:31;4.70;99.90
28614;DHT22;15806;53.548;9.964;2023-03-11T02:29:13;4.90;99.90
28614;DHT22;15806;53.548;9.964;2023-03-11T02:30:55;4.40;99.90
28614;DHT22;15806;53.548;9.964;2023-03-11T02:32:36;4.50;99.90
28614;DHT22;15806;53.548;9.964;2023-03-11T02:34:30;4.30;99.90
28614;DHT22;15806;53.548;9.964;2023-03-11T02:36:49;4.40;99.90
28614;DHT22;15806;53.548;9.964;2023-03-11T02:38:30;4.70;99.90
28614;DHT22;15806;53.548;9.964;2023-03-11T02:43:52;4.30;99.90
28614;DHT22;15806;53.548;9.964;2023-03-11T02:45:33;4.70;99.90
28614;DHT22;15806;53.548;9.964;2023-03-11T02:47:15;4.40;99.90
28614;DHT22;15806;53.548;9.964;2023-03-11T02:48:56;4.30;99.90
28614;DHT22;15806;53.548;9.964;2023-03-11T02:50:37;4.60;99.90
28614;DHT22;15806;53.548;9.964;2023-03-11T02:52:18;4.30;99.90
28614;DHT22;15806;53.548;9.964;2023-03-11T02:54:03;4.70;99.90
28614;DHT22;15806;53.548;9.964;2023-03-11T02:55:44;4.50;99.90
28614;DHT22;15806;53.548;9.964;2023-03-11T02:57:24;4.20;99.90
28614;DHT22;15806;53.548;9.964;2023-03-11T02:59:05;4.20;99.90
28614;DHT22;15806;53.548;9.964;2023-03-11T03:00:45;4.50;99.90
28614;DHT22;15806;53.548;9.964;2023-03-11T03:02:26;4.20;99.90
28614;DHT22;15806;53.548;9.964;2023-03-11T03:04:06;4.30;99.90
28614;DHT22;15806;53.548;9.964;2023-03-11T03:05:47;4.30;99.90
28614;DHT22;15806;53.548;9.964;2023-03-11T03:07:28;4.50;99.90
28614;DHT22;15806;53.548;9.964;2023-03-11T03:09:08;4.50;99.90
28614;DHT22;15806;53.548;9.964;2023-03-11T03:10:49;4.20;99.90
28614;DHT22;15806;53.548;9.964;2023-03-11T03:12:29;4.20;99.90
28614;DHT22;15806;53.548;9.964;2023-03-11T03:14:10;4.50;99.90
28614;DHT22;15806;53.548;9.964;2023-03-11T03:15:50;4.30;99.90
28614;DHT22;15806;53.548;9.964;2023-03-11T03:17:31;4.10;99.90
28614;DHT22;15806;53.548;9.964;2023-03-11T03:19:11;4.30;99.90
28614;DHT22;15806;53.548;9.964;2023-03-11T03:20:53;4.40;99.90
28614;DHT22;15806;53.548;9.964;2023-03-11T03:22:33;4.40;99.90
28614;DHT22;15806;53.548;9.964;2023-03-11T03:24:14;4.10;99.90
28614;DHT22;15806;53.548;9.964;2023-03-11T03:25:55;4.40;99.90
28614;DHT22;15806;53.548;9.964;2023-03-11T03:27:35;4.10;99.90
28614;DHT22;15806;53.548;9.964;2023-03-11T03:29:16;4.30;99.90
28614;DHT22;15806;53.548;9.964;2023-03-11T03:31:12;4.40;99.90
28614;DHT22;15806;53.548;9.964;2023-03-11T03:32:53;4.20;99.90
28614;DHT22;15806;53.548;9.964;2023-03-11T03:34:36;4.40;99.90
28614;DHT22;15806;53.548;9.964;2023-03-11T03:36:16;4.10;99.90
28614;DHT22;15806;53.548;9.964;2023-03-11T03:37:57;4.10;99.90
28614;DHT22;15806;53.548;9.964;2023-03-11T03:39:38;4.10;99.90
28614;DHT22;15806;53.548;9.964;2023-03-11T03:41:18;4.30;99.90
28614;DHT22;15806;53.548;9.964;2023-03-11T03:42:59;4.00;99.90
28614;DHT22;15806;53.548;9.964;2023-03-11T03:44:39;4.30;99.90
28614;DHT22;15806;53.548;9.964;2023-03-11T03:46:21;4.00;99.90
28614;DHT22;15806;53.548;9.964;2023-03-11T03:48:01;4.10;99.90
28614;DHT22;15806;53.548;9.964;2023-03-11T03:49:42;4.10;99.90
28614;DHT22;15806;53.548;9.964;2023-03-11T03:51:22;4.20;99.90
28614;DHT22;15806;53.548;9.964;2023-03-11T03:53:03;4.00;99.90
28614;DHT22;15806;53.548;9.964;2023-03-11T03:54:44;4.20;99.90
28614;DHT22;15806;53.548;9.964;2023-03-11T03:56:24;4.10;99.90
28614;DHT22;15806;53.548;9.964;2023-03-11T03:58:05;4.10;99.90
28614;DHT22;15806;53.548;9.964;2023-03-11T03:59:45;4.10;99.90
28614;DHT22;15806;53.548;9.964;2023-03-11T04:01:26;4.00;99.90
28614;DHT22;15806;53.548;9.964;2023-03-11T04:03:06;3.90;99.90
28614;DHT22;15806;53.548;9.964;2023-03-11T04:04:47;3.90;99.90
28614;DHT22;15806;53.548;9.964;2023-03-11T04:06:27;4.00;99.90
28614;DHT22;15806;53.548;9.964;2023-03-11T04:08:08;3.90;99.90
28614;DHT22;15806;53.548;9.964;2023-03-11T04:09:48;4.00;99.90
28614;DHT22;15806;53.548;9.964;2023-03-11T04:11:31;4.00;99.90
28614;DHT22;15806;53.548;9.964;2023-03-11T04:13:11;3.90;99.90
28614;DHT22;15806;53.548;9.964;2023-03-11T04:14:52;4.00;99.90
28614;DHT22;15806;53.548;9.964;2023-03-11T04:16:32;3.90;99.90
28614;DHT22;15806;53.548;9.964;2023-03-11T04:18:13;3.90;99.90
28614;DHT22;15806;53.548;9.964;2023-03-11T04:19:53;3.80;99.90
28614;DHT22;15806;53.548;9.964;2023-03-11T04:21:34;3.70;99.90
28614;DHT22;15806;53.548;9.964;2023-03-11T04:23:15;3.80;99.90
28614;DHT22;15806;53.548;9.964;2023-03-11T04:24:56;3.70;99.90
28614;DHT22;15806;53.548;9.964;2023-03-11T04:26:36;3.70;99.90
28614;DHT22;15806;53.548;9.964;2023-03-11T04:28:17;3.80;99.90
28614;DHT22;15806;53.548;9.964;2023-03-11T04:29:57;3.70;99.90
28614;DHT22;15806;53.548;9.964;2023-03-11T04:31:38;3.80;99.90
28614;DHT22;15806;53.548;9.964;2023-03-11T04:33:18;3.70;99.90
28614;DHT22;15806;53.548;9.964;2023-03-11T04:34:59;3.70;99.90
28614;DHT22;15806;53.548;9.964;2023-03-11T04:36:40;3.70;99.90
28614;DHT22;15806;53.548;9.964;2023-03-11T04:38:21;3.60;99.90
28614;DHT22;15806;53.548;9.964;2023-03-11T04:40:01;3.60;99.90
28614;DHT22;15806;53.548;9.964;2023-03-11T04:41:42;3.60;99.90
28614;DHT22;15806;53.548;9.964;2023-03-11T04:43:22;3.60;99.90
28614;DHT22;15806;53.548;9.964;2023-03-11T04:45:04;3.60;99.90
28614;DHT22;15806;53.548;9.964;2023-03-11T04:46:44;3.60;99.90
28614;DHT22;15806;53.548;9.964;2023-03-11T04:48:25;3.50;99.90
28614;DHT22;15806;53.548;9.964;2023-03-11T04:50:05;3.50;99.90
28614;DHT22;15806;53.548;9.964;2023-03-11T04:51:46;3.40;99.90
28614;DHT22;15806;53.548;9.964;2023-03-11T04:53:27;3.40;99.90
28614;DHT22;15806;53.548;9.964;2023-03-11T04:55:15;3.40;99.90
28614;DHT22;15806;53.548;9.964;2023-03-11T04:56:56;3.40;99.90
28614;DHT22;15806;53.548;9.964;2023-03-11T04:58:36;3.40;99.90
28614;DHT22;15806;53.548;9.964;2023-03-11T05:00:17;3.30;99.90
28614;DHT22;15806;53.548;9.964;2023-03-11T05:01:58;3.30;99.90
28614;DHT22;15806;53.548;9.964;2023-03-11T05:03:38;3.30;99.90
28614;DHT22;15806;53.548;9.964;2023-03-11T05:05:19;3.20;99.90
28614;DHT22;15806;53.548;9.964;2023-03-11T05:06:59;3.20;99.90
28614;DHT22;15806;53.548;9.964;2023-03-11T05:08:40;3.10;99.90
28614;DHT22;15806;53.548;9.964;2023-03-11T05:10:21;3.10;99.90
28614;DHT22;15806;53.548;9.964;2023-03-11T05:12:01;3.10;99.90
28614;DHT22;15806;53.548;9.964;2023-03-11T05:13:42;3.00;99.90
28614;DHT22;15806;53.548;9.964;2023-03-11T05:15:22;3.00;99.90
28614;DHT22;15806;53.548;9.964;2023-03-11T05:17:03;3.00;99.90
28614;DHT22;15806;53.548;9.964;2023-03-11T05:18:43;3.00;99.90
28614;DHT22;15806;53.548;9.964;2023-03-11T05:20:24;2.90;99.90
28614;DHT22;15806;53.548;9.964;2023-03-11T05:22:05;2.80;99.90
28614;DHT22;15806;53.548;9.964;2023-03-11T05:23:45;2.80;99.90
28614;DHT22;15806;53.548;9.964;2023-03-11T05:25:26;2.70;99.90
28614;DHT22;15806;53.548;9.964;2023-03-11T05:27:07;2.70;99.90
28614;DHT22;15806;53.548;9.964;2023-03-11T05:28:47;2.70;99.90
28614;DHT22;15806;53.548;9.964;2023-03-11T05:30:28;2.70;99.90
28614;DHT22;15806;53.548;9.964;2023-03-11T05:32:08;2.70;99.90
28614;DHT22;15806;53.548;9.964;2023-03-11T05:33:49;2.70;99.90
28614;DHT22;15806;53.548;9.964;2023-03-11T05:35:29;2.70;99.90
28614;DHT22;15806;53.548;9.964;2023-03-11T05:37:10;2.60;99.90
28614;DHT22;15806;53.548;9.964;2023-03-11T05:38:51;2.60;99.90
28614;DHT22;15806;53.548;9.964;2023-03-11T05:40:31;2.60;99.90
28614;DHT22;15806;53.548;9.964;2023-03-11T05:42:12;2.50;99.90
28614;DHT22;15806;53.548;9.964;2023-03-11T05:43:52;2.50;99.90
28614;DHT22;15806;53.548;9.964;2023-03-11T05:45:33;2.50;99.90
28614;DHT22;15806;53.548;9.964;2023-03-11T05:47:15;2.50;99.90
28614;DHT22;15806;53.548;9.964;2023-03-11T05:48:56;2.40;99.90
28614;DHT22;15806;53.548;9.964;2023-03-11T05:50:38;2.40;99.90
28614;DHT22;15806;53.548;9.964;2023-03-11T05:52:18;2.30;99.90
28614;DHT22;15806;53.548;9.964;2023-03-11T05:53:59;2.30;99.90
28614;DHT22;15806;53.548;9.964;2023-03-11T05:55:39;2.30;99.90
28614;DHT22;15806;53.548;9.964;2023-03-11T05:57:20;2.30;99.90
28614;DHT22;15806;53.548;9.964;2023-03-11T05:59:00;2.20;99.90
28614;DHT22;15806;53.548;9.964;2023-03-11T06:00:41;2.20;99.90
28614;DHT22;15806;53.548;9.964;2023-03-11T06:02:21;2.10;99.90
28614;DHT22;15806;53.548;9.964;2023-03-11T06:04:02;2.10;99.90
28614;DHT22;15806;53.548;9.964;2023-03-11T06:05:47;2.10;99.90
28614;DHT22;15806;53.548;9.964;2023-03-11T06:07:28;2.00;99.90
28614;DHT22;15806;53.548;9.964;2023-03-11T06:09:13;2.00;99.90
28614;DHT22;15806;53.548;9.964;2023-03-11T06:11:00;2.00;99.90
28614;DHT22;15806;53.548;9.964;2023-03-11T06:12:40;1.90;99.90
28614;DHT22;15806;53.548;9.964;2023-03-11T06:14:21;1.90;99.90
28614;DHT22;15806;53.548;9.964;2023-03-11T06:16:02;1.80;99.90
28614;DHT22;15806;53.548;9.964;2023-03-11T06:17:43;1.80;99.90
28614;DHT22;15806;53.548;9.964;2023-03-11T06:19:24;1.80;99.90
28614;DHT22;15806;53.548;9.964;2023-03-11T06:21:05;1.70;99.90
28614;DHT22;15806;53.548;9.964;2023-03-11T06:22:48;1.70;99.90
28614;DHT22;15806;53.548;9.964;2023-03-11T06:24:29;1.70;99.90
28614;DHT22;15806;53.548;9.964;2023-03-11T06:26:16;1.70;99.90
28614;DHT22;15806;53.548;9.964;2023-03-11T06:27:57;1.70;99.90
28614;DHT22;15806;53.548;9.964;2023-03-11T06:29:38;1.70;99.90
28614;DHT22;15806;53.548;9.964;2023-03-11T06:31:26;1.70;99.90
28614;DHT22;15806;53.548;9.964;2023-03-11T06:33:07;1.80;99.90
28614;DHT22;15806;53.548;9.964;2023-03-11T06:34:51;1.70;99.90
28614;DHT22;15806;53.548;9.964;2023-03-11T06:36:32;1.70;99.90
28614;DHT22;15806;53.548;9.964;2023-03-11T06:38:12;1.80;99.90
28614;DHT22;15806;53.548;9.964;2023-03-11T06:39:53;1.70;99.90
28614;DHT22;15806;53.548;9.964;2023-03-11T06:41:34;1.80;99.90
28614;DHT22;15806;53.548;9.964;2023-03-11T06:43:14;1.80;99.90
28614;DHT22;15806;53.548;9.964;2023-03-11T06:44:55;1.80;99.90
28614;DHT22;15806;53.548;9.964;2023-03-11T06:46:36;1.80;99.90
28614;DHT22;15806;53.548;9.964;2023-03-11T06:48:16;1.80;99.90
28614;DHT22;15806;53.548;9.964;2023-03-11T06:49:57;1.80;99.90
28614;DHT22;15806;53.548;9.964;2023-03-11T06:51:37;1.80;99.90
28614;DHT22;15806;53.548;9.964;2023-03-11T06:53:18;1.80;99.90
28614;DHT22;15806;53.548;9.964;2023-03-11T06:54:58;1.80;99.90
28614;DHT22;15806;53.548;9.964;2023-03-11T06:56:39;1.80;99.90
28614;DHT22;15806;53.548;9.964;2023-03-11T06:58:19;1.80;99.90
28614;DHT22;15806;53.548;9.964;2023-03-11T07:00:00;1.80;99.90
28614;DHT22;15806;53.548;9.964;2023-03-11T07:01:40;1.80;99.90
28614;DHT22;15806;53.548;9.964;2023-03-11T07:03:21;1.80;99.90
28614;DHT22;15806;53.548;9.964;2023-03-11T07:05:01;1.80;99.90
28614;DHT22;15806;53.548;9.964;2023-03-11T07:06:42;1.80;99.90
28614;DHT22;15806;53.548;9.964;2023-03-11T07:08:23;1.80;99.90
28614;DHT22;15806;53.548;9.964;2023-03-11T07:10:04;1.80;99.90
28614;DHT22;15806;53.548;9.964;2023-03-11T07:11:45;1.80;99.90
28614;DHT22;15806;53.548;9.964;2023-03-11T07:13:25;1.80;99.90
28614;DHT22;15806;53.548;9.964;2023-03-11T07:15:06;1.80;99.90
28614;DHT22;15806;53.548;9.964;2023-03-11T07:16:47;1.80;99.90
28614;DHT22;15806;53.548;9.964;2023-03-11T07:18:28;1.80;99.90
28614;DHT22;15806;53.548;9.964;2023-03-11T07:20:09;1.90;99.90
28614;DHT22;15806;53.548;9.964;2023-03-11T07:21:50;1.90;99.90
28614;DHT22;15806;53.548;9.964;2023-03-11T07:23:31;1.90;99.90
28614;DHT22;15806;53.548;9.964;2023-03-11T07:25:12;1.90;99.90
28614;DHT22;15806;53.548;9.964;2023-03-11T07:26:52;2.00;99.90
28614;DHT22;15806;53.548;9.964;2023-03-11T07:28:32;2.00;99.90
28614;DHT22;15806;53.548;9.964;2023-03-11T07:30:13;2.00;99.90
28614;DHT22;15806;53.548;9.964;2023-03-11T07:31:54;2.10;99.90
28614;DHT22;15806;53.548;9.964;2023-03-11T07:33:34;2.10;99.90
28614;DHT22;15806;53.548;9.964;2023-03-11T07:35:15;2.20;99.90
28614;DHT22;15806;53.548;9.964;2023-03-11T07:36:55;2.10;99.90
28614;DHT22;15806;53.548;9.964;2023-03-11T07:38:36;2.10;99.90
28614;DHT22;15806;53.548;9.964;2023-03-11T07:40:16;2.20;99.90
28614;DHT22;15806;53.548;9.964;2023-03-11T07:41:57;2.20;99.90
28614;DHT22;15806;53.548;9.964;2023-03-11T07:43:38;2.20;99.90
28614;DHT22;15806;53.548;9.964;2023-03-11T07:45:19;2.20;99.90
28614;DHT22;15806;53.548;9.964;2023-03-11T07:47:04;2.20;99.90
28614;DHT22;15806;53.548;9.964;2023-03-11T07:48:45;2.20;99.90
28614;DHT22;15806;53.548;9.964;2023-03-11T07:50:25;2.20;99.90
28614;DHT22;15806;53.548;9.964;2023-03-11T07:52:06;2.20;99.90
28614;DHT22;15806;53.548;9.964;2023-03-11T07:53:47;2.20;99.90
28614;DHT22;15806;53.548;9.964;2023-03-11T07:55:28;2.20;99.90
28614;DHT22;15806;53.548;9.964;2023-03-11T07:57:09;2.30;99.90
28614;DHT22;15806;53.548;9.964;2023-03-11T07:58:50;2.30;99.90
28614;DHT22;15806;53.548;9.964;2023-03-11T08:00:30;2.30;99.90
28614;DHT22;15806;53.548;9.964;2023-03-11T08:02:11;2.20;99.90
28614;DHT22;15806;53.548;9.964;2023-03-11T08:03:53;2.30;99.90
28614;DHT22;15806;53.548;9.964;2023-03-11T08:05:33;2.40;99.90
28614;DHT22;15806;53.548;9.964;2023-03-11T08:07:14;2.60;99.90
28614;DHT22;15806;53.548;9.964;2023-03-11T08:08:54;2.70;99.90
28614;DHT22;15806;53.548;9.964;2023-03-11T08:10:38;2.60;99.90
28614;DHT22;15806;53.548;9.964;2023-03-11T08:12:19;2.50;99.90
28614;DHT22;15806;53.548;9.964;2023-03-11T08:14:00;2.50;99.90
28614;DHT22;15806;53.548;9.964;2023-03-11T08:15:40;2.60;99.90
28614;DHT22;15806;53.548;9.964;2023-03-11T08:17:21;2.50;99.90
28614;DHT22;15806;53.548;9.964;2023-03-11T08:19:01;2.40;99.90
28614;DHT22;15806;53.548;9.964;2023-03-11T08:20:42;2.30;99.90
28614;DHT22;15806;53.548;9.964;2023-03-11T08:22:22;2.30;99.90
28614;DHT22;15806;53.548;9.964;2023-03-11T08:24:03;2.30;99.90
28614;DHT22;15806;53.548;9.964;2023-03-11T08:25:44;2.40;99.90
28614;DHT22;15806;53.548;9.964;2023-03-11T08:27:27;2.20;99.90
28614;DHT22;15806;53.548;9.964;2023-03-11T08:29:08;2.10;99.90
28614;DHT22;15806;53.548;9.964;2023-03-11T08:30:48;2.10;99.90
28614;DHT22;15806;53.548;9.964;2023-03-11T08:32:29;2.10;99.90
28614;DHT22;15806;53.548;9.964;2023-03-11T08:34:10;2.10;99.90
28614;DHT22;15806;53.548;9.964;2023-03-11T08:35:50;2.00;99.90
28614;DHT22;15806;53.548;9.964;2023-03-11T08:37:31;2.00;99.90
28614;DHT22;15806;53.548;9.964;2023-03-11T08:39:11;2.00;99.90
28614;DHT22;15806;53.548;9.964;2023-03-11T08:40:52;2.00;99.90
28614;DHT22;15806;53.548;9.964;2023-03-11T08:42:32;1.90;99.90
28614;DHT22;15806;53.548;9.964;2023-03-11T08:44:13;1.80;99.90
28614;DHT22;15806;53.548;9.964;2023-03-11T08:45:53;1.90;99.90
28614;DHT22;15806;53.548;9.964;2023-03-11T08:47:35;2.10;99.90
28614;DHT22;15806;53.548;9.964;2023-03-11T08:49:15;2.00;99.90
28614;DHT22;15806;53.548;9.964;2023-03-11T08:50:56;1.80;99.90
28614;DHT22;15806;53.548;9.964;2023-03-11T08:52:37;1.80;99.90
28614;DHT22;15806;53.548;9.964;2023-03-11T08:54:17;1.80;99.90
28614;DHT22;15806;53.548;9.964;2023-03-11T08:55:58;1.80;99.90
28614;DHT22;15806;53.548;9.964;2023-03-11T08:57:38;1.90;99.90
28614;DHT22;15806;53.548;9.964;2023-03-11T08:59:19;1.90;99.90
28614;DHT22;15806;53.548;9.964;2023-03-11T09:01:00;1.90;99.90
28614;DHT22;15806;53.548;9.964;2023-03-11T09:02:40;1.80;99.90
28614;DHT22;15806;53.548;9.964;2023-03-11T09:04:21;1.90;99.90
28614;DHT22;15806;53.548;9.964;2023-03-11T09:06:05;1.90;99.90
28614;DHT22;15806;53.548;9.964;2023-03-11T09:07:46;1.90;99.90
28614;DHT22;15806;53.548;9.964;2023-03-11T09:09:26;2.00;99.90
28614;DHT22;15806;53.548;9.964;2023-03-11T09:11:07;2.10;99.90
28614;DHT22;15806;53.548;9.964;2023-03-11T09:12:48;2.00;99.90
28614;DHT22;15806;53.548;9.964;2023-03-11T09:14:28;2.20;99.90
28614;DHT22;15806;53.548;9.964;2023-03-11T09:16:13;2.30;99.90
28614;DHT22;15806;53.548;9.964;2023-03-11T09:17:53;2.20;99.90
28614;DHT22;15806;53.548;9.964;2023-03-11T09:19:34;2.10;99.90
28614;DHT22;15806;53.548;9.964;2023-03-11T09:21:15;2.10;99.90
28614;DHT22;15806;53.548;9.964;2023-03-11T09:22:55;2.10;99.90
28614;DHT22;15806;53.548;9.964;2023-03-11T09:24:36;2.30;99.90
28614;DHT22;15806;53.548;9.964;2023-03-11T09:26:16;2.20;99.90
28614;DHT22;15806;53.548;9.964;2023-03-11T09:27:57;2.10;99.90
28614;DHT22;15806;53.548;9.964;2023-03-11T09:29:37;2.10;99.90
28614;DHT22;15806;53.548;9.964;2023-03-11T09:31:18;2.20;99.90
28614;DHT22;15806;53.548;9.964;2023-03-11T09:32:59;2.20;99.90
28614;DHT22;15806;53.548;9.964;2023-03-11T09:34:39;2.30;99.90
28614;DHT22;15806;53.548;9.964;2023-03-11T09:36:20;2.30;99.90
28614;DHT22;15806;53.548;9.964;2023-03-11T09:38:01;2.30;99.90
28614;DHT22;15806;53.548;9.964;2023-03-11T09:39:42;2.40;99.90
28614;DHT22;15806;53.548;9.964;2023-03-11T09:41:27;2.40;99.90
28614;DHT22;15806;53.548;9.964;2023-03-11T09:43:18;2.40;99.90
28614;DHT22;15806;53.548;9.964;2023-03-11T09:45:14;2.50;99.90
28614;DHT22;15806;53.548;9.964;2023-03-11T09:47:06;2.50;99.90
28614;DHT22;15806;53.548;9.964;2023-03-11T09:51:16;2.50;99.90
28614;DHT22;15806;53.548;9.964;2023-03-11T09:53:24;2.40;99.90
28614;DHT22;15806;53.548;9.964;2023-03-11T09:55:38;2.30;99.90
28614;DHT22;15806;53.548;9.964;2023-03-11T09:57:24;2.20;99.90
28614;DHT22;15806;53.548;9.964;2023-03-11T09:59:12;2.10;99.90
28614;DHT22;15806;53.548;9.964;2023-03-11T10:00:55;2.10;99.90
28614;DHT22;15806;53.548;9.964;2023-03-11T10:02:36;2.10;99.90
28614;DHT22;15806;53.548;9.964;2023-03-11T10:04:43;2.10;99.90
28614;DHT22;15806;53.548;9.964;2023-03-11T10:06:28;2.10;99.90
28614;DHT22;15806;53.548;9.964;2023-03-11T10:08:32;2.10;99.90
28614;DHT22;15806;53.548;9.964;2023-03-11T10:10:14;2.20;99.90
28614;DHT22;15806;53.548;9.964;2023-03-11T10:15:54;2.30;99.90
28614;DHT22;15806;53.548;9.964;2023-03-11T10:21:38;2.30;99.90
28614;DHT22;15806;53.548;9.964;2023-03-11T10:25:13;2.20;99.90
28614;DHT22;15806;53.548;9.964;2023-03-11T10:26:58;2.30;99.90
28614;DHT22;15806;53.548;9.964;2023-03-11T10:28:48;2.40;99.90
28614;DHT22;15806;53.548;9.964;2023-03-11T10:30:47;2.30;99.90
28614;DHT22;15806;53.548;9.964;2023-03-11T10:37:28;2.40;99.90
28614;DHT22;15806;53.548;9.964;2023-03-11T10:39:10;2.40;99.90
28614;DHT22;15806;53.548;9.964;2023-03-11T10:40:54;2.50;99.90
28614;DHT22;15806;53.548;9.964;2023-03-11T10:42:36;2.50;99.90
28614;DHT22;15806;53.548;9.964;2023-03-11T10:44:22;2.50;99.90
28614;DHT22;15806;53.548;9.964;2023-03-11T10:46:12;2.40;99.90
28614;DHT22;15806;53.548;9.964;2023-03-11T10:47:55;2.50;99.90
28614;DHT22;15806;53.548;9.964;2023-03-11T10:49:36;2.50;99.90
28614;DHT22;15806;53.548;9.964;2023-03-11T10:51:19;2.50;99.90
28614;DHT22;15806;53.548;9.964;2023-03-11T10:53:19;2.50;99.90
28614;DHT22;15806;53.548;9.964;2023-03-11T10:55:01;2.50;99.90
28614;DHT22;15806;53.548;9.964;2023-03-11T10:56:42;2.50;99.90
28614;DHT22;15806;53.548;9.964;2023-03-11T10:58:25;2.70;99.90
28614;DHT22;15806;53.548;9.964;2023-03-11T11:00:07;2.70;99.90
28614;DHT22;15806;53.548;9.964;2023-03-11T11:02:21;2.70;99.90
28614;DHT22;15806;53.548;9.964;2023-03-11T11:04:02;2.80;99.90
28614;DHT22;15806;53.548;9.964;2023-03-11T11:05:43;2.90;99.90
28614;DHT22;15806;53.548;9.964;2023-03-11T11:07:33;2.90;99.90
28614;DHT22;15806;53.548;9.964;2023-03-11T11:09:18;2.90;99.90
28614;DHT22;15806;53.548;9.964;2023-03-11T11:11:00;2.90;99.90
28614;DHT22;15806;53.548;9.964;2023-03-11T11:13:01;2.90;99.90
28614;DHT22;15806;53.548;9.964;2023-03-11T11:14:51;3.00;99.90
28614;DHT22;15806;53.548;9.964;2023-03-11T11:16:33;3.00;99.90
28614;DHT22;15806;53.548;9.964;2023-03-11T11:18:15;3.00;99.90
28614;DHT22;15806;53.548;9.964;2023-03-11T11:19:58;2.90;99.90
28614;DHT22;15806;53.548;9.964;2023-03-11T11:21:39;3.10;99.90